Time;durP1;ratioP1;P1;durP2;ratioP2;P2;SDS_P1;SDS_P2;PMS_P1;PMS_P2;Temp;Humidity;BMP_temperature;BMP_pressure;BME280_temperature;BME280_humidity;BME280_pressure;Samples;Min_cycle;Max_cycle;Signal;HPM_P1;HPM_P2
2022/11/04 00:01:45;;;;;;;3.53;0.98;;;17.90;99.90;;;;;;4939621;28;20126;-74
2022/11/04 00:04:13;;;;;;;3.85;1.00;;;17.80;99.90;;;;;;4942415;28;20435;-74
2022/11/04 00:06:39;;;;;;;3.75;0.82;;;17.80;99.90;;;;;;4955091;28;20115;-74
2022/11/04 00:09:08;;;;;;;3.28;2.03;;;17.70;99.90;;;;;;4953726;28;20491;-75
2022/11/04 00:14:19;;;;;;;2.50;0.70;;;17.80;99.90;;;;;;4942360;28;20162;-75
2022/11/04 00:28:41;;;;;;;2.17;0.60;;;17.70;99.90;;;;;;4931138;28;20050;-74
2022/11/04 00:30:29;;;;;;;2.33;0.73;;;17.40;99.90;;;;;;4940937;28;20050;-73
2022/11/04 00:35:39;;;;;;;2.47;0.60;;;17.20;99.90;;;;;;4952081;28;20455;-73
2022/11/04 00:38:05;;;;;;;2.28;0.65;;;17.10;99.90;;;;;;4959836;28;20130;-73
2022/11/04 00:40:31;;;;;;;2.72;0.70;;;17.00;99.90;;;;;;4941858;28;20055;-74
2022/11/04 00:42:57;;;;;;;2.90;0.73;;;17.00;99.90;;;;;;4941922;28;20035;-73
2022/11/04 00:45:23;;;;;;;2.47;0.60;;;17.00;99.90;;;;;;4943015;28;20043;-74
2022/11/04 00:47:49;;;;;;;3.13;0.65;;;17.00;99.90;;;;;;4942312;28;20043;-74
2022/11/04 00:50:15;;;;;;;1.30;0.47;;;16.90;99.90;;;;;;4961365;28;20085;-73
2022/11/04 00:52:41;;;;;;;2.17;0.90;;;16.90;99.90;;;;;;4962853;28;20495;-73
2022/11/04 00:55:07;;;;;;;2.30;0.65;;;16.90;99.90;;;;;;4973903;28;20047;-74
2022/11/04 00:57:33;;;;;;;1.50;0.40;;;16.80;99.90;;;;;;4960066;28;20039;-73
2022/11/04 00:59:58;;;;;;;2.83;0.60;;;16.70;99.90;;;;;;4962965;28;20088;-74
2022/11/04 01:02:25;;;;;;;3.35;0.60;;;16.60;99.90;;;;;;4956320;28;20039;-74
2022/11/04 01:04:50;;;;;;;2.83;0.88;;;16.60;99.90;;;;;;4962396;28;20058;-74
2022/11/04 01:07:16;;;;;;;2.60;0.50;;;16.50;99.90;;;;;;4954330;28;20039;-73
2022/11/04 01:09:42;;;;;;;1.98;0.57;;;16.50;99.90;;;;;;4960011;28;20371;-74
2022/11/04 01:12:08;;;;;;;2.53;0.63;;;16.50;99.90;;;;;;4961265;28;20027;-73
2022/11/04 01:14:33;;;;;;;2.30;0.60;;;16.40;99.90;;;;;;4959688;28;20518;-74
2022/11/04 01:16:59;;;;;;;2.17;0.40;;;16.30;99.90;;;;;;4955634;28;20372;-75
2022/11/04 01:19:25;;;;;;;1.40;0.45;;;16.10;99.90;;;;;;4941556;28;20044;-74
2022/11/04 01:21:51;;;;;;;3.05;0.40;;;16.10;99.90;;;;;;4940600;28;20498;-74
2022/11/04 01:24:18;;;;;;;1.77;0.50;;;16.20;99.90;;;;;;4937894;28;20039;-74
2022/11/04 01:26:45;;;;;;;1.27;0.40;;;16.20;99.90;;;;;;4941482;28;20043;-74
2022/11/04 01:29:12;;;;;;;1.70;0.43;;;16.20;99.90;;;;;;4942224;28;20039;-73
2022/11/04 01:31:38;;;;;;;0.90;0.40;;;16.00;99.90;;;;;;4933995;28;20143;-73
2022/11/04 01:34:04;;;;;;;2.08;0.47;;;16.10;99.90;;;;;;4944559;28;20065;-74
2022/11/04 01:36:30;;;;;;;1.48;0.40;;;16.10;99.90;;;;;;4940292;28;20080;-74
2022/11/04 01:38:56;;;;;;;1.80;0.32;;;16.10;99.90;;;;;;4944413;28;20043;-74
2022/11/04 01:41:30;;;;;;;2.45;0.60;;;16.20;99.90;;;;;;4966524;28;20042;-75
2022/11/04 01:44:24;;;;;;;2.05;0.57;;;16.00;99.90;;;;;;4943194;28;20050;-74
2022/11/04 01:46:52;;;;;;;2.10;0.50;;;15.90;99.90;;;;;;4939786;28;20141;-74
2022/11/04 01:49:36;;;;;;;2.40;0.60;;;15.80;99.90;;;;;;4940291;28;20035;-73
2022/11/04 01:52:15;;;;;;;2.22;1.10;;;15.80;99.90;;;;;;4947299;28;20506;-74
2022/11/04 01:54:44;;;;;;;2.30;0.40;;;15.70;99.90;;;;;;4974682;28;20508;-74
2022/11/04 01:57:14;;;;;;;3.75;0.73;;;15.70;99.90;;;;;;4966691;28;20039;-73
2022/11/04 01:59:41;;;;;;;1.58;0.30;;;15.60;99.90;;;;;;4960036;28;20482;-74
2022/11/04 02:02:07;;;;;;;7.25;0.65;;;15.50;99.90;;;;;;4945742;28;20541;-74
2022/11/04 02:04:33;;;;;;;1.70;0.47;;;15.50;99.90;;;;;;4962705;28;20035;-73
2022/11/04 02:07:04;;;;;;;2.47;0.68;;;15.50;99.90;;;;;;4956162;28;20522;-74
2022/11/04 02:09:32;;;;;;;3.50;0.73;;;15.40;99.90;;;;;;4957046;28;20479;-75
2022/11/04 02:14:47;;;;;;;6.40;0.68;;;15.20;99.90;;;;;;4960309;28;20041;-73
2022/11/04 02:17:17;;;;;;;1.90;0.43;;;15.20;99.90;;;;;;4949349;28;20431;-74
2022/11/04 02:20:36;;;;;;;2.30;0.32;;;15.10;99.90;;;;;;4976029;28;20031;-73
2022/11/04 02:23:20;;;;;;;3.30;0.63;;;15.10;99.90;;;;;;4926027;29;20027;-75
2022/11/04 02:26:05;;;;;;;2.78;0.65;;;15.00;99.90;;;;;;4939822;28;20395;-74
2022/11/04 02:28:40;;;;;;;3.58;0.70;;;14.90;99.90;;;;;;4960097;28;20046;-74
2022/11/04 02:31:32;;;;;;;1.27;0.40;;;14.80;99.90;;;;;;4958465;28;20026;-74
2022/11/04 02:34:09;;;;;;;2.38;0.52;;;14.80;99.90;;;;;;4954647;28;20039;-73
2022/11/04 02:36:50;;;;;;;2.03;0.40;;;14.80;99.90;;;;;;4969300;28;20347;-74
2022/11/04 02:39:19;;;;;;;2.40;1.25;;;14.70;99.90;;;;;;4937052;28;20039;-74
2022/11/04 02:42:03;;;;;;;4.93;0.52;;;14.70;99.90;;;;;;4949118;28;20031;-73
2022/11/04 02:44:43;;;;;;;4.10;0.77;;;14.60;99.90;;;;;;4958156;28;20035;-73
2022/11/04 02:47:21;;;;;;;5.63;0.50;;;14.60;99.90;;;;;;4971646;28;20521;-73
2022/11/04 02:50:09;;;;;;;4.65;0.50;;;14.60;99.90;;;;;;4962050;28;20123;-73
2022/11/04 02:52:46;;;;;;;2.25;0.68;;;14.60;99.90;;;;;;4977213;28;20042;-74
2022/11/04 02:55:30;;;;;;;3.05;0.50;;;14.50;99.90;;;;;;4955987;28;20043;-74
2022/11/04 02:57:58;;;;;;;4.03;0.50;;;14.40;99.90;;;;;;4960263;28;20061;-73
2022/11/04 03:00:25;;;;;;;2.35;0.40;;;14.30;99.90;;;;;;4954422;28;20395;-74
2022/11/04 03:02:57;;;;;;;2.53;0.63;;;14.30;99.90;;;;;;4958707;28;20134;-73
2022/11/04 03:05:37;;;;;;;3.13;0.40;;;14.20;99.90;;;;;;4973268;28;22996;-73
2022/11/04 03:08:13;;;;;;;3.08;0.57;;;14.20;99.90;;;;;;4957722;28;20365;-75
2022/11/04 03:10:47;;;;;;;4.75;0.55;;;14.20;99.90;;;;;;4961126;28;20866;-74
2022/11/04 03:13:25;;;;;;;2.42;0.43;;;14.20;99.90;;;;;;4942469;28;20028;-74
2022/11/04 03:15:57;;;;;;;3.00;0.50;;;14.20;99.90;;;;;;4960305;28;20035;-74
2022/11/04 03:18:35;;;;;;;4.75;0.50;;;14.20;99.90;;;;;;4972762;28;20401;-74
2022/11/04 03:21:03;;;;;;;3.28;0.50;;;14.10;99.90;;;;;;4956286;28;20038;-73
2022/11/04 03:23:29;;;;;;;4.18;0.57;;;14.10;99.90;;;;;;4965361;28;20123;-73
2022/11/04 03:26:19;;;;;;;1.67;0.30;;;14.10;99.90;;;;;;4958444;28;20041;-74
2022/11/04 03:29:00;;;;;;;3.20;0.55;;;14.10;99.90;;;;;;4971094;28;20039;-74
2022/11/04 03:31:38;;;;;;;1.27;0.32;;;14.00;99.90;;;;;;4955385;28;20043;-72
2022/11/04 03:34:04;;;;;;;2.60;0.47;;;13.90;99.90;;;;;;4939348;28;20035;-72
2022/11/04 03:36:30;;;;;;;3.47;0.68;;;13.90;99.90;;;;;;4942482;28;20040;-73
2022/11/04 03:38:56;;;;;;;2.58;0.50;;;13.90;99.90;;;;;;4939274;28;20042;-72
2022/11/04 03:41:51;;;;;;;1.80;0.50;;;13.80;99.90;;;;;;4952892;28;20045;-72
2022/11/04 03:44:17;;;;;;;2.33;0.40;;;13.70;99.90;;;;;;4959947;28;20089;-73
2022/11/04 03:46:43;;;;;;;4.72;0.50;;;13.70;99.90;;;;;;4974411;28;20042;-73
2022/11/04 03:49:10;;;;;;;2.15;0.47;;;13.70;99.90;;;;;;4956741;28;20039;-72
2022/11/04 03:51:36;;;;;;;1.95;0.43;;;13.70;99.90;;;;;;4960592;28;20078;-73
2022/11/04 03:54:03;;;;;;;3.17;0.47;;;13.50;99.90;;;;;;4962888;28;20523;-72
2022/11/04 03:56:42;;;;;;;1.85;0.40;;;13.50;99.90;;;;;;4952465;28;20032;-72
2022/11/04 03:59:26;;;;;;;;;;;13.40;99.90;;;;;;4963480;28;20046;-74
2022/11/04 04:01:59;;;;;;;1.35;0.32;;;13.40;99.90;;;;;;4973511;28;20390;-73
2022/11/04 04:04:28;;;;;;;7.20;1.50;;;13.30;99.90;;;;;;4944217;28;20030;-72
2022/11/04 04:07:15;;;;;;;2.97;0.57;;;13.40;99.90;;;;;;4964741;28;20039;-72
2022/11/04 04:10:37;;;;;;;3.50;0.93;;;13.30;99.90;;;;;;4945039;28;20043;-73
2022/11/04 04:12:56;;;;;;;2.25;0.50;;;13.20;99.90;;;;;;4959052;28;20035;-72
2022/11/04 04:15:28;;;;;;;4.65;0.60;;;13.40;99.90;;;;;;4961648;28;20039;-72
2022/11/04 04:17:58;;;;;;;4.15;1.00;;;13.30;99.90;;;;;;4965444;28;20035;-72
2022/11/04 04:20:27;;;;;;;2.47;0.45;;;13.30;99.90;;;;;;4960901;28;20042;-73
2022/11/04 04:22:59;;;;;;;4.55;0.50;;;13.40;99.90;;;;;;4963788;28;20470;-72
2022/11/04 04:28:15;;;;;;;2.90;0.73;;;13.40;99.90;;;;;;4942530;28;20435;-73
2022/11/04 04:30:42;;;;;;;2.78;0.60;;;13.50;99.90;;;;;;4943298;28;20039;-72
2022/11/04 04:33:17;;;;;;;2.72;0.50;;;13.60;99.90;;;;;;4939208;28;20043;-72
2022/11/04 04:35:51;;;;;;;4.20;0.50;;;13.50;99.90;;;;;;4942023;28;20551;-73
2022/11/04 04:47:21;;;;;;;3.85;0.40;;;13.50;99.90;;;;;;4950069;28;20042;-72
2022/11/04 04:49:58;;;;;;;3.28;0.60;;;13.40;99.90;;;;;;4944072;28;20075;-73
2022/11/04 04:52:28;;;;;;;3.25;0.52;;;13.40;99.90;;;;;;4941302;28;20039;-73
2022/11/04 04:54:54;;;;;;;3.35;0.52;;;13.30;99.90;;;;;;4945957;28;20036;-73
2022/11/04 04:57:20;;;;;;;1.98;0.30;;;13.30;99.90;;;;;;4954171;28;20043;-73
2022/11/04 04:59:46;;;;;;;2.95;0.55;;;13.20;99.90;;;;;;4962786;28;20035;-72
2022/11/04 05:02:12;;;;;;;3.22;0.57;;;13.20;99.90;;;;;;4974243;28;20109;-73
2022/11/04 05:04:38;;;;;;;3.03;0.80;;;13.20;99.90;;;;;;4966660;28;20567;-73
2022/11/04 05:07:05;;;;;;;2.05;0.45;;;13.10;99.90;;;;;;4961642;28;20090;-72
2022/11/04 05:09:33;;;;;;;1.70;0.30;;;13.20;99.90;;;;;;4962773;28;20038;-72
2022/11/04 05:12:00;;;;;;;5.32;1.13;;;13.20;99.90;;;;;;4954034;28;20031;-72
2022/11/04 05:14:26;;;;;;;3.13;0.63;;;13.10;99.90;;;;;;4941787;28;20047;-73
2022/11/04 05:16:52;;;;;;;4.53;0.85;;;13.10;99.90;;;;;;4945330;28;20134;-72
2022/11/04 05:19:17;;;;;;;2.72;0.40;;;13.00;99.90;;;;;;4955617;28;20031;-72
2022/11/04 05:21:43;;;;;;;3.88;0.70;;;13.00;99.90;;;;;;4947183;28;20039;-72
2022/11/04 05:24:09;;;;;;;2.97;0.57;;;13.00;99.90;;;;;;4946434;28;20051;-72
2022/11/04 05:26:35;;;;;;;2.30;0.50;;;12.90;99.90;;;;;;4942737;28;20332;-73
2022/11/04 05:29:01;;;;;;;10.20;0.60;;;12.90;99.90;;;;;;4957890;28;20127;-73
2022/11/04 05:31:29;;;;;;;4.05;0.50;;;12.90;99.90;;;;;;4942096;28;20039;-73
2022/11/04 05:33:55;;;;;;;4.35;0.45;;;12.80;99.90;;;;;;4939777;28;20043;-72
2022/11/04 05:36:21;;;;;;;4.53;0.40;;;12.90;99.90;;;;;;4955127;28;20044;-73
2022/11/04 05:38:51;;;;;;;4.32;0.70;;;12.80;99.90;;;;;;4924977;29;20744;-72
2022/11/04 05:41:24;;;;;;;6.68;0.95;;;12.80;99.90;;;;;;4954378;28;20562;-72
2022/11/04 05:43:54;;;;;;;2.47;0.70;;;12.80;99.90;;;;;;4926265;28;20043;-73
2022/11/04 05:46:20;;;;;;;3.80;0.60;;;12.70;99.90;;;;;;4943513;28;20095;-72
2022/11/04 05:48:46;;;;;;;4.22;1.05;;;12.70;99.90;;;;;;4942434;28;20091;-72
2022/11/04 05:51:17;;;;;;;4.10;0.50;;;12.70;99.90;;;;;;4940157;28;20111;-72
2022/11/04 05:53:43;;;;;;;5.38;0.85;;;12.60;99.90;;;;;;4941496;28;20112;-72
2022/11/04 05:56:09;;;;;;;5.47;0.98;;;12.50;99.90;;;;;;4965423;28;20046;-73
2022/11/04 05:58:35;;;;;;;5.00;0.73;;;12.50;99.90;;;;;;4945131;28;20031;-72
2022/11/04 06:01:27;;;;;;;2.80;0.43;;;12.50;99.90;;;;;;4940999;28;20054;-72
2022/11/04 06:03:54;;;;;;;4.75;1.08;;;12.50;99.90;;;;;;4927910;28;20034;-72
2022/11/04 06:06:21;;;;;;;5.03;0.80;;;12.40;99.90;;;;;;4945660;28;20042;-72
2022/11/04 06:08:46;;;;;;;3.58;0.70;;;12.40;99.90;;;;;;4937097;28;20030;-72
2022/11/04 06:11:12;;;;;;;5.22;0.50;;;12.30;99.90;;;;;;4955147;28;20032;-75
2022/11/04 06:13:38;;;;;;;5.57;0.90;;;12.30;99.90;;;;;;4946377;28;20036;-73
2022/11/04 06:16:04;;;;;;;2.78;0.68;;;12.20;99.90;;;;;;4941822;28;20043;-71
2022/11/04 06:18:30;;;;;;;4.00;0.90;;;12.40;99.90;;;;;;4945960;28;20582;-73
2022/11/04 06:21:26;;;;;;;3.97;0.60;;;12.40;99.90;;;;;;4945835;28;20047;-72
2022/11/04 06:23:55;;;;;;;2.05;0.60;;;12.40;99.90;;;;;;4941804;28;20034;-74
2022/11/04 06:26:21;;;;;;;2.20;0.43;;;12.40;99.90;;;;;;4957646;28;20035;-72
2022/11/04 06:28:47;;;;;;;2.50;0.43;;;12.30;99.90;;;;;;4965146;28;20053;-73
2022/11/04 06:31:14;;;;;;;2.67;0.43;;;12.40;99.90;;;;;;4962486;28;20042;-73
2022/11/04 06:33:40;;;;;;;4.97;0.82;;;12.40;99.90;;;;;;4958886;28;20039;-73
2022/11/04 06:36:07;;;;;;;5.15;0.70;;;12.30;99.90;;;;;;4956295;28;20133;-74
2022/11/04 06:38:35;;;;;;;5.68;0.85;;;12.30;99.90;;;;;;4957034;28;20042;-72
2022/11/04 06:41:01;;;;;;;9.15;0.90;;;12.30;99.90;;;;;;4940551;28;20031;-73
2022/11/04 06:43:28;;;;;;;6.43;0.70;;;12.30;99.90;;;;;;4944457;28;20032;-73
2022/11/04 06:45:59;;;;;;;7.03;0.75;;;12.40;99.90;;;;;;4942519;28;20028;-71
2022/11/04 06:48:25;;;;;;;8.90;1.20;;;12.40;99.90;;;;;;4934833;29;20436;-74
2022/11/04 06:50:52;;;;;;;3.35;0.60;;;12.40;99.90;;;;;;4942477;28;20041;-74
2022/11/04 06:53:17;;;;;;;9.48;1.23;;;12.50;99.90;;;;;;4941018;28;20059;-72
2022/11/04 06:55:44;;;;;;;3.75;0.73;;;12.40;99.90;;;;;;4965544;28;20079;-73
2022/11/04 06:58:10;;;;;;;4.78;0.77;;;12.50;99.90;;;;;;4940181;28;20058;-72
2022/11/04 07:00:36;;;;;;;3.50;0.68;;;12.50;99.90;;;;;;4958277;28;20129;-72
2022/11/04 07:03:02;;;;;;;7.78;0.95;;;12.50;99.90;;;;;;4963755;28;20146;-73
2022/11/04 07:05:28;;;;;;;4.13;0.55;;;12.60;99.90;;;;;;4939857;28;20039;-72
2022/11/04 07:07:55;;;;;;;7.50;0.90;;;12.50;99.90;;;;;;4927953;28;20376;-74
2022/11/04 07:10:21;;;;;;;4.35;0.80;;;12.60;99.90;;;;;;4939583;28;20051;-73
2022/11/04 07:12:48;;;;;;;4.07;0.90;;;12.70;99.90;;;;;;4939957;28;20039;-73
2022/11/04 07:15:13;;;;;;;;;;;12.70;99.90;;;;;;4932398;28;20435;-73
2022/11/04 07:17:39;;;;;;;5.30;0.90;;;12.80;99.90;;;;;;4948924;28;19915;-72
2022/11/04 07:20:06;;;;;;;4.05;0.65;;;12.80;99.90;;;;;;4951722;28;20039;-75
2022/11/04 07:22:31;;;;;;;6.03;0.80;;;12.80;99.90;;;;;;4952734;28;20040;-72
2022/11/04 07:24:57;;;;;;;9.77;1.15;;;12.80;99.90;;;;;;4941577;28;20046;-72
2022/11/04 07:27:23;;;;;;;5.18;0.90;;;12.90;99.90;;;;;;4939368;28;20402;-72
2022/11/04 07:29:49;;;;;;;5.32;0.80;;;12.90;99.90;;;;;;4937748;28;20096;-73
2022/11/04 07:32:15;;;;;;;14.13;1.50;;;12.90;99.90;;;;;;4952373;28;20039;-73
2022/11/04 07:34:41;;;;;;;6.55;1.10;;;13.00;99.90;;;;;;4938539;28;20065;-74
2022/11/04 07:37:07;;;;;;;6.13;0.80;;;13.00;99.90;;;;;;4929498;28;20035;-72
2022/11/04 07:39:33;;;;;;;7.55;1.15;;;13.00;99.90;;;;;;4951392;28;20035;-73
2022/11/04 07:41:59;;;;;;;3.63;0.50;;;13.00;99.90;;;;;;4937366;28;20122;-72
2022/11/04 07:44:25;;;;;;;8.95;1.00;;;13.10;99.90;;;;;;4923379;28;20971;-76
2022/11/04 07:46:52;;;;;;;9.80;1.27;;;13.10;99.90;;;;;;4944555;28;20509;-73
2022/11/04 07:49:19;;;;;;;6.85;1.02;;;13.10;99.90;;;;;;4937847;28;20035;-73
2022/11/04 07:51:47;;;;;;;5.40;0.80;;;13.10;99.90;;;;;;4954892;28;20040;-72
2022/11/04 07:54:13;;;;;;;2.63;0.40;;;13.20;99.90;;;;;;4938387;28;20047;-73
2022/11/04 07:56:39;;;;;;;5.55;1.00;;;13.30;99.90;;;;;;4952521;28;20079;-74
2022/11/04 07:59:06;;;;;;;6.28;1.40;;;13.30;99.90;;;;;;4952952;28;20036;-71
2022/11/04 08:01:31;;;;;;;4.82;0.82;;;13.30;99.90;;;;;;4935753;28;20418;-72
2022/11/04 08:03:58;;;;;;;4.93;1.33;;;13.20;99.90;;;;;;4936589;28;20035;-72
2022/11/04 08:06:24;;;;;;;4.97;0.80;;;13.30;99.90;;;;;;4938953;28;20154;-72
2022/11/04 08:08:52;;;;;;;7.85;1.15;;;15.00;99.90;;;;;;4936314;28;20483;-71
2022/11/04 08:11:22;;;;;;;5.13;1.05;;;15.90;99.90;;;;;;4945305;28;20509;-72
2022/11/04 08:13:48;;;;;;;4.88;1.55;;;16.40;99.90;;;;;;4933994;28;20055;-72
2022/11/04 08:16:17;;;;;;;5.47;1.42;;;16.20;99.90;;;;;;4932866;28;20095;-72
2022/11/04 08:18:43;;;;;;;5.28;1.00;;;16.70;99.90;;;;;;4972618;28;20387;-73
2022/11/04 08:21:10;;;;;;;6.72;1.23;;;17.30;99.70;;;;;;4950924;28;20038;-71
2022/11/04 08:23:37;;;;;;;7.68;1.05;;;17.30;99.60;;;;;;4941688;28;20444;-72
2022/11/04 08:26:10;;;;;;;5.18;1.13;;;17.00;99.20;;;;;;4934221;28;20031;-72
2022/11/04 08:28:37;;;;;;;7.10;1.67;;;16.60;99.80;;;;;;4942090;28;20043;-71
2022/11/04 08:31:07;;;;;;;8.85;1.58;;;16.90;99.50;;;;;;4941020;28;20513;-71
2022/11/04 08:33:34;;;;;;;4.75;1.13;;;17.80;98.70;;;;;;4938454;28;20075;-73
2022/11/04 08:36:25;;;;;;;5.38;1.38;;;17.40;98.10;;;;;;4984833;28;20035;-72
2022/11/04 08:38:51;;;;;;;7.10;1.83;;;17.30;98.60;;;;;;4938999;28;20119;-71
2022/11/04 08:41:23;;;;;;;7.28;1.73;;;17.50;98.40;;;;;;4944374;28;20122;-72
2022/11/04 08:43:49;;;;;;;8.32;1.50;;;17.10;98.50;;;;;;4944007;28;20039;-73
2022/11/04 08:46:16;;;;;;;7.57;1.58;;;16.90;99.00;;;;;;4946648;28;20034;-72
2022/11/04 08:48:42;;;;;;;6.32;1.02;;;17.20;98.90;;;;;;4959998;28;20042;-73
2022/11/04 08:51:22;;;;;;;8.27;1.35;;;16.90;99.10;;;;;;4942627;28;20035;-72
2022/11/04 08:53:48;;;;;;;6.95;1.20;;;17.30;99.10;;;;;;4947893;28;20038;-72
2022/11/04 08:56:19;;;;;;;9.70;1.20;;;16.50;99.00;;;;;;4952281;28;20039;-71
2022/11/04 08:58:45;;;;;;;6.55;1.60;;;15.80;99.90;;;;;;4959127;28;20027;-72
2022/11/04 09:01:11;;;;;;;5.97;1.88;;;15.80;99.90;;;;;;4964733;28;20038;-72
2022/11/04 09:03:39;;;;;;;6.40;1.38;;;15.50;99.90;;;;;;4960234;28;20046;-71
2022/11/04 09:06:06;;;;;;;6.00;1.42;;;15.70;99.90;;;;;;4948960;28;20041;-71
2022/11/04 09:08:32;;;;;;;8.23;1.52;;;15.70;99.90;;;;;;4957875;28;20040;-72
2022/11/04 09:10:58;;;;;;;5.63;1.30;;;15.80;99.90;;;;;;4942224;28;26193;-72
2022/11/04 09:13:23;;;;;;;9.18;1.50;;;16.00;99.90;;;;;;4929136;28;20043;-73
2022/11/04 09:15:49;;;;;;;8.18;1.58;;;16.10;99.90;;;;;;4939279;28;20601;-72
2022/11/04 09:18:16;;;;;;;7.35;1.60;;;15.80;99.90;;;;;;4939740;28;20081;-71
2022/11/04 09:20:43;;;;;;;5.82;0.93;;;15.90;99.90;;;;;;4948740;28;20057;-71
2022/11/04 09:23:11;;;;;;;6.75;0.93;;;15.90;99.90;;;;;;4960635;28;20035;-71
2022/11/04 09:25:36;;;;;;;7.07;1.40;;;15.80;99.90;;;;;;4962345;28;20501;-71
2022/11/04 09:28:03;;;;;;;8.82;1.55;;;15.80;99.90;;;;;;4960755;28;20049;-72
2022/11/04 09:30:29;;;;;;;4.22;1.13;;;16.00;99.90;;;;;;4966012;28;20046;-71
2022/11/04 09:32:54;;;;;;;6.20;1.10;;;16.30;99.90;;;;;;4960396;28;20039;-72
2022/11/04 09:35:20;;;;;;;7.65;1.15;;;16.60;99.60;;;;;;4959825;28;20034;-72
2022/11/04 09:37:46;;;;;;;7.97;1.42;;;16.80;99.40;;;;;;4963198;28;20040;-72
2022/11/04 09:40:16;;;;;;;12.65;1.40;;;16.70;98.80;;;;;;4963460;28;20137;-72
2022/11/04 09:42:42;;;;;;;6.05;1.10;;;16.80;98.80;;;;;;4961395;28;20051;-72
2022/11/04 09:45:14;;;;;;;6.47;1.48;;;16.80;98.80;;;;;;4960988;28;20053;-72
2022/11/04 09:47:42;;;;;;;5.97;1.67;;;17.50;98.30;;;;;;4960472;28;20049;-72
2022/11/04 09:50:17;;;;;;;7.40;1.20;;;17.70;98.10;;;;;;4967216;28;20065;-72
2022/11/04 09:52:53;;;;;;;5.60;0.95;;;17.50;98.00;;;;;;4970431;28;20119;-72
2022/11/04 09:55:29;;;;;;;9.23;1.33;;;17.40;98.00;;;;;;4953379;28;20045;-71
2022/11/04 09:58:00;;;;;;;10.43;1.63;;;17.20;98.10;;;;;;4944493;28;20050;-72
2022/11/04 10:00:31;;;;;;;5.90;1.17;;;17.60;98.00;;;;;;4928456;28;20031;-72
2022/11/04 10:03:23;;;;;;;5.43;1.15;;;17.00;98.00;;;;;;4941256;28;20130;-72
2022/11/04 10:05:56;;;;;;;8.63;1.23;;;17.50;98.10;;;;;;4956499;28;20694;-72
2022/11/04 10:08:38;;;;;;;13.00;1.60;;;18.00;97.50;;;;;;4939994;28;21404;-71
2022/11/04 10:11:11;;;;;;;9.75;1.33;;;17.80;97.60;;;;;;4941368;28;20130;-73
2022/11/04 10:14:07;;;;;;;8.02;1.85;;;17.80;97.50;;;;;;4938007;28;20051;-72
2022/11/04 10:16:48;;;;;;;6.13;1.60;;;18.20;97.10;;;;;;4938937;28;20086;-72
2022/11/04 10:19:50;;;;;;;10.02;1.75;;;18.20;96.90;;;;;;4942835;28;20039;-72
2022/11/04 10:22:58;;;;;;;8.77;1.30;;;18.10;97.00;;;;;;4923151;28;20090;-72
2022/11/04 10:25:44;;;;;;;8.77;1.70;;;18.40;96.80;;;;;;4952872;28;20043;-72
2022/11/04 10:28:16;;;;;;;8.05;2.13;;;18.90;96.40;;;;;;4939157;28;20051;-72
2022/11/04 10:30:44;;;;;;;6.65;1.20;;;19.40;96.20;;;;;;4941319;28;20035;-72
2022/11/04 10:33:12;;;;;;;6.35;1.20;;;19.00;96.20;;;;;;4941947;28;20484;-72
2022/11/04 10:35:46;;;;;;;4.63;1.30;;;18.60;96.50;;;;;;4942964;28;20035;-72
2022/11/04 10:38:21;;;;;;;6.88;1.25;;;18.50;96.70;;;;;;4938276;28;20043;-71
2022/11/04 10:40:53;;;;;;;6.72;0.95;;;18.40;96.50;;;;;;4955317;28;20039;-71
2022/11/04 10:43:39;;;;;;;6.57;1.60;;;18.60;96.50;;;;;;4938614;28;20047;-73
2022/11/04 10:46:36;;;;;;;9.63;1.45;;;18.90;96.50;;;;;;4941031;28;20043;-72
2022/11/04 10:49:25;;;;;;;7.65;1.30;;;18.70;96.50;;;;;;4964199;28;20090;-72
2022/11/04 10:51:52;;;;;;;7.70;1.40;;;18.80;96.20;;;;;;4929786;28;20035;-71
2022/11/04 10:54:19;;;;;;;7.45;1.35;;;18.80;96.20;;;;;;4944751;28;20513;-72
2022/11/04 10:56:52;;;;;;;;;;;19.00;96.30;;;;;;4954801;28;20035;-72
2022/11/04 10:59:28;;;;;;;9.63;1.20;;;19.30;95.70;;;;;;4958368;28;19929;-71
2022/11/04 11:02:01;;;;;;;8.45;2.03;;;19.40;95.80;;;;;;4944100;28;20915;-72
2022/11/04 11:04:32;;;;;;;5.85;1.27;;;20.10;95.30;;;;;;4938317;28;20031;-73
2022/11/04 11:07:01;;;;;;;8.73;2.20;;;20.10;95.20;;;;;;4939366;28;20098;-72
2022/11/04 11:09:33;;;;;;;8.07;1.92;;;20.40;94.70;;;;;;4943218;28;20435;-72
2022/11/04 11:12:03;;;;;;;8.40;1.40;;;20.60;94.30;;;;;;4941163;28;20100;-72
2022/11/04 11:14:29;;;;;;;6.50;1.30;;;20.70;94.30;;;;;;4956216;28;20050;-71
2022/11/04 11:17:17;;;;;;;8.50;1.65;;;20.50;94.20;;;;;;4953852;28;20027;-72
2022/11/04 11:20:17;;;;;;;5.57;1.17;;;20.40;94.10;;;;;;4956237;28;20059;-71
2022/11/04 11:22:46;;;;;;;11.48;1.65;;;20.20;94.20;;;;;;4958113;28;20098;-72
2022/11/04 11:25:19;;;;;;;9.68;1.42;;;20.70;93.90;;;;;;4945740;28;20039;-73
2022/11/04 11:28:07;;;;;;;9.95;1.45;;;21.00;93.70;;;;;;4940033;28;20055;-73
2022/11/04 11:30:45;;;;;;;7.05;1.80;;;21.20;93.30;;;;;;4939672;28;20054;-74
2022/11/04 11:33:19;;;;;;;6.55;1.40;;;21.40;92.90;;;;;;4938696;28;20097;-73
2022/11/04 11:35:57;;;;;;;8.93;1.17;;;21.50;93.00;;;;;;4941781;28;20039;-73
2022/11/04 11:38:27;;;;;;;5.40;1.35;;;21.50;92.80;;;;;;4940227;28;20043;-73
2022/11/04 11:41:04;;;;;;;5.53;1.60;;;21.80;92.70;;;;;;4940982;28;20039;-73
2022/11/04 11:43:33;;;;;;;5.65;1.30;;;21.50;92.60;;;;;;4955148;28;20040;-73
2022/11/04 11:46:00;;;;;;;6.72;1.30;;;21.80;92.40;;;;;;4940344;28;20471;-74
2022/11/04 11:48:31;;;;;;;8.57;1.35;;;21.80;92.00;;;;;;4942851;28;20648;-72
2022/11/04 11:50:58;;;;;;;9.43;1.73;;;22.00;91.70;;;;;;4958077;28;20041;-73
2022/11/04 11:53:28;;;;;;;5.55;1.35;;;21.70;91.70;;;;;;4958369;28;20038;-72
2022/11/04 11:56:23;;;;;;;6.68;1.40;;;21.50;91.70;;;;;;4943282;28;20039;-73
2022/11/04 11:58:54;;;;;;;7.80;1.67;;;22.20;91.40;;;;;;4936913;28;20043;-73
2022/11/04 12:01:55;;;;;;;6.50;1.60;;;21.70;91.50;;;;;;4941864;28;20118;-73
2022/11/04 12:04:21;;;;;;;6.18;1.17;;;22.00;91.30;;;;;;4937298;28;20058;-73
2022/11/04 12:07:09;;;;;;;5.22;1.27;;;22.50;91.10;;;;;;4953818;28;20415;-73
2022/11/04 12:10:07;;;;;;;7.40;1.20;;;22.40;90.90;;;;;;4957235;28;20062;-74
2022/11/04 12:13:07;;;;;;;4.38;1.20;;;22.70;90.70;;;;;;4953694;28;20511;-75
2022/11/04 12:15:38;;;;;;;6.03;1.55;;;22.40;90.80;;;;;;4939825;28;20454;-74
2022/11/04 12:18:41;;;;;;;6.30;1.48;;;22.90;90.40;;;;;;4958822;28;20082;-75
2022/11/04 12:21:19;;;;;;;6.10;1.55;;;23.80;90.00;;;;;;4955899;28;20379;-73
2022/11/04 12:24:14;;;;;;;6.30;1.50;;;23.70;88.60;;;;;;4941251;28;20166;-73
2022/11/04 12:26:49;;;;;;;4.70;1.30;;;24.00;88.30;;;;;;4930018;28;20113;-73
2022/11/04 12:29:31;;;;;;;7.55;1.77;;;25.10;87.50;;;;;;4941288;28;20065;-74
2022/11/04 12:32:14;;;;;;;6.13;1.60;;;25.10;86.80;;;;;;4960875;28;20527;-73
2022/11/04 12:35:09;;;;;;;7.03;1.52;;;25.40;86.20;;;;;;4958847;28;20027;-73
2022/11/04 12:37:53;;;;;;;5.15;1.52;;;26.10;85.10;;;;;;4957845;28;20031;-74
2022/11/04 12:41:03;;;;;;;5.82;1.42;;;26.70;83.90;;;;;;4939941;28;20067;-74
2022/11/04 12:43:57;;;;;;;5.68;1.30;;;27.40;83.30;;;;;;4939029;28;20061;-72
2022/11/04 12:46:35;;;;;;;4.70;1.50;;;27.60;81.70;;;;;;4942656;28;20039;-73
2022/11/04 12:49:19;;;;;;;;;;;27.80;81.20;;;;;;4944075;28;20040;-73
2022/11/04 12:51:57;;;;;;;6.55;1.92;;;28.10;80.00;;;;;;4944585;28;20789;-73
2022/11/04 12:54:53;;;;;;;5.97;1.73;;;26.10;80.20;;;;;;4938875;28;20040;-73
2022/11/04 12:57:33;;;;;;;4.53;1.10;;;25.80;80.00;;;;;;4940939;28;20486;-74
2022/11/04 13:00:17;;;;;;;5.43;1.83;;;26.20;80.30;;;;;;4942074;28;20039;-73
2022/11/04 13:02:46;;;;;;;;;;;25.60;78.50;;;;;;4974783;28;20039;-74
2022/11/04 13:05:20;;;;;;;5.43;1.20;;;26.60;79.10;;;;;;4941505;28;19915;-73
2022/11/04 13:08:15;;;;;;;6.35;1.30;;;28.00;77.90;;;;;;4944805;28;20477;-74
2022/11/04 13:10:57;;;;;;;7.03;1.27;;;28.30;76.70;;;;;;4956679;28;20044;-73
2022/11/04 13:13:33;;;;;;;3.85;1.38;;;28.50;76.00;;;;;;4943784;28;20039;-73
2022/11/04 13:16:05;;;;;;;4.95;1.83;;;27.80;75.30;;;;;;4942391;28;20639;-72
2022/11/04 13:18:36;;;;;;;4.32;1.20;;;27.50;75.80;;;;;;4923067;28;20925;-74
2022/11/04 13:21:03;;;;;;;4.72;1.50;;;27.80;76.00;;;;;;4936254;28;20067;-73
2022/11/04 13:24:09;;;;;;;7.57;1.48;;;28.30;75.30;;;;;;4947344;28;20395;-74
2022/11/04 13:26:35;;;;;;;5.50;1.83;;;28.90;74.50;;;;;;4932848;28;20050;-75
2022/11/04 13:29:04;;;;;;;;;;;29.40;71.40;;;;;;4961290;28;21072;-73
2022/11/04 13:32:00;;;;;;;5.10;1.45;;;28.80;70.00;;;;;;4958530;28;19925;-74
2022/11/04 13:35:08;;;;;;;19.50;2.10;;;28.00;68.80;;;;;;4958696;28;20502;-73
2022/11/04 13:38:02;;;;;;;5.03;1.70;;;28.20;68.50;;;;;;4939092;28;20041;-72
2022/11/04 13:40:45;;;;;;;5.25;1.85;;;27.90;69.60;;;;;;4959594;28;20034;-74
2022/11/04 13:43:48;;;;;;;6.28;1.52;;;28.50;68.80;;;;;;4959164;28;20042;-73
2022/11/04 13:46:17;;;;;;;8.50;1.55;;;27.70;70.30;;;;;;4958651;28;20039;-73
2022/11/04 13:49:03;;;;;;;4.22;1.40;;;27.60;70.60;;;;;;4952615;28;20665;-73